createdAt,value
2019-02-11T00:01:54.432Z,100.00
2019-02-11T00:04:21.376Z,100.00
2019-02-11T00:06:48.278Z,100.00
2019-02-11T00:09:15.220Z,100.00
2019-02-11T00:11:42.126Z,100.00
2019-02-11T00:14:09.144Z,100.00
2019-02-11T00:16:36.053Z,100.00
2019-02-11T00:19:02.990Z,100.00
2019-02-11T00:21:29.895Z,100.00
2019-02-11T00:23:56.785Z,100.00
2019-02-11T00:26:23.707Z,100.00
2019-02-11T00:28:50.629Z,100.00
2019-02-11T00:31:17.658Z,100.00
2019-02-11T00:33:44.582Z,100.00
2019-02-11T00:36:11.528Z,100.00
2019-02-11T00:38:38.484Z,100.00
2019-02-11T00:41:05.513Z,100.00
2019-02-11T00:43:32.444Z,100.00
2019-02-11T00:45:59.382Z,100.00
2019-02-11T00:48:26.296Z,100.00
2019-02-11T00:50:53.235Z,100.00
2019-02-11T00:53:20.135Z,100.00
2019-02-11T00:55:47.090Z,100.00
2019-02-11T00:58:13.978Z,100.00
2019-02-11T01:00:40.910Z,100.00
2019-02-11T01:03:07.858Z,100.00
2019-02-11T01:05:34.828Z,100.00
2019-02-11T01:08:01.711Z,100.00
2019-02-11T01:10:28.659Z,100.00
2019-02-11T01:12:55.604Z,100.00
2019-02-11T01:15:22.547Z,100.00
2019-02-11T01:17:49.466Z,100.00
2019-02-11T01:20:16.389Z,100.00
2019-02-11T01:22:43.326Z,100.00
2019-02-11T01:25:10.301Z,100.00
2019-02-11T01:27:37.200Z,100.00
2019-02-11T01:30:05.776Z,100.00
2019-02-11T01:32:32.738Z,100.00
2019-02-11T01:34:59.645Z,100.00
2019-02-11T01:37:26.566Z,100.00
2019-02-11T01:39:53.472Z,100.00
2019-02-11T01:42:20.434Z,100.00
2019-02-11T01:44:47.330Z,100.00
2019-02-11T01:47:14.251Z,100.00
2019-02-11T01:49:41.152Z,100.00
2019-02-11T01:52:08.082Z,100.00
2019-02-11T01:54:34.980Z,100.00
2019-02-11T01:57:01.924Z,100.00
2019-02-11T01:59:29.118Z,100.00
2019-02-11T02:01:56.054Z,100.00
2019-02-11T02:04:22.965Z,100.00
2019-02-11T02:06:49.915Z,100.00
2019-02-11T02:09:16.868Z,100.00
2019-02-11T02:11:43.793Z,100.00
2019-02-11T02:14:10.710Z,100.00
2019-02-11T02:16:37.677Z,100.00
2019-02-11T02:19:04.569Z,100.00
2019-02-11T02:21:31.505Z,100.00
2019-02-11T02:23:58.432Z,100.00
2019-02-11T02:26:25.351Z,100.00
2019-02-11T02:28:52.303Z,100.00
2019-02-11T02:31:19.448Z,100.00
2019-02-11T02:33:46.388Z,100.00
2019-02-11T02:36:13.360Z,100.00
2019-02-11T02:38:40.339Z,100.00
2019-02-11T02:41:07.241Z,100.00
2019-02-11T02:43:34.166Z,100.00
2019-02-11T02:46:01.081Z,100.00
2019-02-11T02:48:28.055Z,100.00
2019-02-11T02:50:54.964Z,100.00
2019-02-11T02:53:21.895Z,100.00
2019-02-11T02:55:48.828Z,100.00
2019-02-11T02:58:15.807Z,100.00
2019-02-11T03:00:42.722Z,100.00
2019-02-11T03:03:09.694Z,100.00
2019-02-11T03:05:36.608Z,100.00
2019-02-11T03:08:03.650Z,100.00
2019-02-11T03:10:30.622Z,100.00
2019-02-11T03:12:57.630Z,100.00
2019-02-11T03:15:24.568Z,100.00
2019-02-11T03:17:51.519Z,100.00
2019-02-11T03:20:18.452Z,100.00
2019-02-11T03:22:45.423Z,100.00
2019-02-11T03:25:12.382Z,100.00
2019-02-11T03:27:39.547Z,100.00
2019-02-11T03:30:06.540Z,100.00
2019-02-11T03:32:33.512Z,100.00
2019-02-11T03:35:00.448Z,100.00
2019-02-11T03:37:27.405Z,100.00
2019-02-11T03:39:54.334Z,100.00
2019-02-11T03:42:21.268Z,100.00
2019-02-11T03:44:48.314Z,100.00
2019-02-11T03:47:15.272Z,100.00
2019-02-11T03:49:42.226Z,100.00
2019-02-11T03:52:09.280Z,100.00
2019-02-11T03:54:36.205Z,100.00
2019-02-11T03:57:03.139Z,100.00
2019-02-11T03:59:30.076Z,100.00
2019-02-11T04:01:57.019Z,100.00
2019-02-11T04:04:23.963Z,100.00
2019-02-11T04:06:51.182Z,100.00
2019-02-11T04:09:18.125Z,100.00
2019-02-11T04:11:45.074Z,100.00
2019-02-11T04:14:12.050Z,100.00
2019-02-11T04:16:38.978Z,100.00
2019-02-11T04:19:05.967Z,100.00
2019-02-11T04:21:32.861Z,100.00
2019-02-11T04:23:59.826Z,100.00
2019-02-11T04:26:26.752Z,100.00
2019-02-11T04:28:53.743Z,100.00
2019-02-11T04:31:20.673Z,100.00
2019-02-11T04:33:47.641Z,100.00
2019-02-11T04:36:14.584Z,100.00
2019-02-11T04:38:41.545Z,100.00
2019-02-11T04:41:08.552Z,100.00
2019-02-11T04:43:35.497Z,100.00
2019-02-11T04:46:02.490Z,100.00
2019-02-11T04:48:29.428Z,100.00
2019-02-11T04:50:56.390Z,100.00
2019-02-11T04:53:23.306Z,100.00
2019-02-11T04:55:50.272Z,100.00
2019-02-11T04:58:17.206Z,100.00
2019-02-11T05:00:44.168Z,100.00
2019-02-11T05:03:11.131Z,100.00
2019-02-11T05:05:38.127Z,100.00
2019-02-11T05:08:05.073Z,100.00
2019-02-11T05:10:32.026Z,100.00
2019-02-11T05:12:59.068Z,100.00
2019-02-11T05:15:26.042Z,100.00
2019-02-11T05:17:52.981Z,100.00
2019-02-11T05:20:19.957Z,100.00
2019-02-11T05:22:46.883Z,100.00
2019-02-11T05:25:13.864Z,100.00
2019-02-11T05:27:40.794Z,100.00
2019-02-11T05:30:08.778Z,100.00
2019-02-11T05:32:35.697Z,100.00
2019-02-11T05:35:03.081Z,100.00
2019-02-11T05:37:30.037Z,100.00
2019-02-11T05:39:56.997Z,100.00
2019-02-11T05:42:23.916Z,100.00
2019-02-11T05:44:54.062Z,100.00
2019-02-11T05:47:19.771Z,100.00
2019-02-11T05:49:46.711Z,100.00
2019-02-11T05:52:13.733Z,100.00
2019-02-11T05:54:40.690Z,100.00
2019-02-11T05:57:07.644Z,100.00
2019-02-11T05:59:34.558Z,100.00
2019-02-11T06:02:01.566Z,100.00
2019-02-11T06:04:28.495Z,100.00
2019-02-11T06:06:55.421Z,100.00
2019-02-11T06:09:23.266Z,100.00
2019-02-11T06:11:50.433Z,100.00
2019-02-11T06:14:17.363Z,100.00
2019-02-11T06:16:44.315Z,100.00
2019-02-11T06:19:11.221Z,100.00
2019-02-11T06:21:39.406Z,100.00
2019-02-11T06:24:06.313Z,100.00
2019-02-11T06:26:33.322Z,100.00
2019-02-11T06:29:00.238Z,100.00
2019-02-11T06:31:27.224Z,100.00
2019-02-11T06:33:54.149Z,100.00
2019-02-11T06:36:21.100Z,100.00
2019-02-11T06:38:48.037Z,100.00
2019-02-11T06:41:15.021Z,100.00
2019-02-11T06:43:41.993Z,100.00
2019-02-11T06:46:08.943Z,100.00
2019-02-11T06:48:35.881Z,100.00
2019-02-11T06:51:02.883Z,100.00
2019-02-11T06:53:29.807Z,100.00
2019-02-11T06:55:56.821Z,100.00
2019-02-11T06:58:23.740Z,100.00
2019-02-11T07:00:50.712Z,100.00
2019-02-11T07:03:17.672Z,100.00
2019-02-11T07:05:44.642Z,100.00
2019-02-11T07:08:12.011Z,100.00
2019-02-11T07:10:38.923Z,100.00
2019-02-11T07:13:05.931Z,100.00
2019-02-11T07:15:32.888Z,100.00
2019-02-11T07:17:59.835Z,100.00
2019-02-11T07:20:26.803Z,100.00
2019-02-11T07:22:53.918Z,100.00
2019-02-11T07:25:20.820Z,100.00
2019-02-11T07:27:47.787Z,100.00
2019-02-11T07:30:14.819Z,100.00
2019-02-11T07:32:41.774Z,100.00
2019-02-11T07:35:08.720Z,100.00
2019-02-11T07:37:35.719Z,100.00
2019-02-11T07:40:02.679Z,100.00
2019-02-11T07:42:33.760Z,100.00
2019-02-11T07:45:04.170Z,100.00
2019-02-11T07:47:30.891Z,100.00
2019-02-11T07:49:57.524Z,100.00
2019-02-11T07:52:27.002Z,100.00
2019-02-11T07:54:52.521Z,100.00
2019-02-11T07:57:19.200Z,100.00
2019-02-11T07:59:45.824Z,100.00
2019-02-11T08:02:12.591Z,100.00
2019-02-11T08:04:39.219Z,100.00
2019-02-11T08:07:05.877Z,100.00
2019-02-11T08:09:32.519Z,100.00
2019-02-11T08:12:00.383Z,100.00
2019-02-11T08:14:27.045Z,100.00
2019-02-11T08:16:53.687Z,100.00
2019-02-11T08:19:20.391Z,100.00
2019-02-11T08:21:47.024Z,100.00
2019-02-11T08:24:13.635Z,100.00
2019-02-11T08:26:40.232Z,100.00
2019-02-11T08:29:06.924Z,100.00
2019-02-11T08:31:33.481Z,100.00
2019-02-11T08:34:00.073Z,100.00
2019-02-11T08:36:26.729Z,100.00
2019-02-11T08:38:53.329Z,100.00
2019-02-11T08:41:19.979Z,100.00
2019-02-11T08:43:46.636Z,100.00
2019-02-11T08:46:13.359Z,100.00
2019-02-11T08:48:39.954Z,100.00
2019-02-11T08:51:06.649Z,100.00
2019-02-11T08:53:33.239Z,100.00
2019-02-11T08:55:59.907Z,100.00
2019-02-11T08:58:26.601Z,100.00
2019-02-11T09:00:53.429Z,100.00
2019-02-11T09:03:20.238Z,100.00
2019-02-11T09:05:47.098Z,100.00
2019-02-11T09:08:13.791Z,100.00
2019-02-11T09:10:40.343Z,100.00
2019-02-11T09:13:06.934Z,100.00
2019-02-11T09:15:33.836Z,100.00
2019-02-11T09:18:00.521Z,100.00
2019-02-11T09:20:27.080Z,100.00
2019-02-11T09:22:53.993Z,100.00
2019-02-11T09:25:20.965Z,100.00
2019-02-11T09:27:47.419Z,100.00
2019-02-11T09:30:14.517Z,100.00
2019-02-11T09:32:40.996Z,100.00
2019-02-11T09:35:07.972Z,100.00
2019-02-11T09:37:34.467Z,100.00
2019-02-11T09:40:01.454Z,100.00
2019-02-11T09:42:28.354Z,100.00
2019-02-11T09:44:54.857Z,100.00
2019-02-11T09:47:21.483Z,100.00
2019-02-11T09:49:54.048Z,100.00
2019-02-11T09:52:20.535Z,100.00
2019-02-11T09:54:47.427Z,100.00
2019-02-11T09:57:14.004Z,100.00
2019-02-11T09:59:40.529Z,100.00
2019-02-11T10:02:07.340Z,100.00
2019-02-11T10:04:33.997Z,100.00
2019-02-11T10:07:00.593Z,100.00
2019-02-11T10:09:27.112Z,100.00
2019-02-11T10:11:53.750Z,100.00
2019-02-11T10:14:20.256Z,100.00
2019-02-11T10:16:46.757Z,100.00
2019-02-11T10:19:13.706Z,100.00
2019-02-11T10:21:40.645Z,100.00
2019-02-11T10:24:07.576Z,100.00
2019-02-11T10:26:34.582Z,100.00
2019-02-11T10:29:01.579Z,100.00
2019-02-11T10:31:28.547Z,100.00
2019-02-11T10:33:55.435Z,100.00
2019-02-11T10:36:22.382Z,100.00
2019-02-11T10:38:49.298Z,100.00
2019-02-11T10:41:17.402Z,100.00
2019-02-11T10:43:44.314Z,100.00
2019-02-11T10:46:11.273Z,100.00
2019-02-11T10:48:38.224Z,100.00
2019-02-11T10:51:05.230Z,100.00
2019-02-11T10:53:32.138Z,100.00
2019-02-11T10:55:59.215Z,100.00
2019-02-11T10:58:26.128Z,100.00
2019-02-11T11:00:53.111Z,100.00
2019-02-11T11:03:20.020Z,100.00
2019-02-11T11:05:46.997Z,100.00
2019-02-11T11:08:14.010Z,100.00
2019-02-11T11:10:40.959Z,100.00
2019-02-11T11:13:08.005Z,100.00
2019-02-11T11:15:34.998Z,100.00
2019-02-11T11:18:01.986Z,100.00
2019-02-11T11:20:29.353Z,97.79
2019-02-11T11:22:56.321Z,98.40
2019-02-11T11:25:23.207Z,98.65
2019-02-11T11:27:50.262Z,97.53
2019-02-11T11:30:17.458Z,97.19
2019-02-11T11:32:44.455Z,94.74
2019-02-11T11:35:12.231Z,95.58
2019-02-11T11:37:39.202Z,98.17
2019-02-11T11:40:07.968Z,100.00
2019-02-11T11:42:34.920Z,100.00
2019-02-11T11:45:01.895Z,100.00
2019-02-11T11:47:28.816Z,100.00
2019-02-11T11:49:55.756Z,100.00
2019-02-11T11:52:22.938Z,100.00
2019-02-11T11:54:49.857Z,100.00
2019-02-11T11:57:16.810Z,100.00
2019-02-11T11:59:43.998Z,100.00
2019-02-11T12:02:15.466Z,100.00
2019-02-11T12:04:39.795Z,100.00
2019-02-11T12:07:07.033Z,100.00
2019-02-11T12:09:33.973Z,100.00
2019-02-11T12:12:01.009Z,100.00
2019-02-11T12:14:27.903Z,100.00
2019-02-11T12:16:57.728Z,99.32
2019-02-11T12:19:23.822Z,98.89
2019-02-11T12:21:50.770Z,98.33
2019-02-11T12:24:17.754Z,98.61
2019-02-11T12:26:44.712Z,94.14
2019-02-11T12:29:11.616Z,93.45
2019-02-11T12:31:38.626Z,94.12
2019-02-11T12:34:05.220Z,90.79
2019-02-11T12:36:31.807Z,92.89
2019-02-11T12:38:58.440Z,88.77
2019-02-11T12:41:25.043Z,87.56
2019-02-11T12:43:52.009Z,86.29
2019-02-11T12:46:18.915Z,81.95
2019-02-11T12:48:45.880Z,83.45
2019-02-11T12:51:12.823Z,81.40
2019-02-11T12:53:39.807Z,80.75
2019-02-11T12:56:06.687Z,79.36
2019-02-11T12:58:33.632Z,80.85
2019-02-11T13:01:00.538Z,77.04
2019-02-11T13:03:27.478Z,77.16
2019-02-11T13:05:54.389Z,76.44
2019-02-11T13:08:21.337Z,77.12
2019-02-11T13:10:48.295Z,76.67
2019-02-11T13:13:15.260Z,78.11
2019-02-11T13:15:59.846Z,77.14
2019-02-11T13:18:11.239Z,75.70
2019-02-11T13:20:38.337Z,77.36
2019-02-11T13:23:05.283Z,77.23
2019-02-11T13:25:32.183Z,76.46
2019-02-11T13:27:59.142Z,75.42
2019-02-11T13:30:26.086Z,75.91
2019-02-11T13:32:53.047Z,73.94
2019-02-11T13:35:20.010Z,73.93
2019-02-11T13:37:46.947Z,74.57
2019-02-11T13:40:13.877Z,75.79
2019-02-11T13:42:40.932Z,77.69
2019-02-11T13:45:11.438Z,75.55
2019-02-11T13:47:51.754Z,75.62
2019-02-11T13:50:07.976Z,75.00
2019-02-11T13:52:35.128Z,74.22
2019-02-11T13:55:02.077Z,74.23
2019-02-11T13:57:29.104Z,75.30
2019-02-11T13:59:56.059Z,74.81
2019-02-11T14:02:22.945Z,74.97
2019-02-11T14:04:50.020Z,76.24
2019-02-11T14:07:16.993Z,76.46
2019-02-11T14:09:43.996Z,76.90
2019-02-11T14:12:10.941Z,75.08
2019-02-11T14:14:37.907Z,75.80
2019-02-11T14:17:04.846Z,76.91
2019-02-11T14:19:31.823Z,74.29
2019-02-11T14:21:58.793Z,74.17
2019-02-11T14:24:25.741Z,74.92
2019-02-11T14:26:52.703Z,75.32
2019-02-11T14:29:19.642Z,73.98
2019-02-11T14:31:46.573Z,75.06
2019-02-11T14:34:13.519Z,72.89
2019-02-11T14:36:43.244Z,73.14
2019-02-11T14:39:11.161Z,73.56
2019-02-11T14:41:38.165Z,71.70
2019-02-11T14:44:05.080Z,69.77
2019-02-11T14:46:32.144Z,66.82
2019-02-11T14:48:59.101Z,70.24
2019-02-11T14:51:26.064Z,68.00
2019-02-11T14:53:52.995Z,67.63
2019-02-11T14:56:20.145Z,66.94
2019-02-11T14:58:47.074Z,68.60
2019-02-11T15:01:14.123Z,68.75
2019-02-11T15:03:41.055Z,68.70
2019-02-11T15:06:08.141Z,69.32
2019-02-11T15:08:35.121Z,70.25
2019-02-11T15:11:02.206Z,70.97
2019-02-11T15:13:29.176Z,69.11
2019-02-11T15:15:56.327Z,69.80
2019-02-11T15:18:23.371Z,69.44
2019-02-11T15:20:53.235Z,70.06
2019-02-11T15:23:22.272Z,70.91
2019-02-11T15:25:49.229Z,69.64
2019-02-11T15:28:16.350Z,70.53
2019-02-11T15:30:43.326Z,72.36
2019-02-11T15:33:10.257Z,71.18
2019-02-11T15:35:37.347Z,71.52
2019-02-11T15:38:04.312Z,71.72
2019-02-11T15:40:31.271Z,73.63
2019-02-11T15:42:58.258Z,72.28
2019-02-11T15:45:25.174Z,72.96
2019-02-11T15:47:52.177Z,72.29
2019-02-11T15:50:21.806Z,71.96
2019-02-11T15:52:48.929Z,73.04
2019-02-11T15:55:16.852Z,74.23
2019-02-11T15:57:43.836Z,72.77
2019-02-11T16:00:15.983Z,71.32
2019-02-11T16:02:43.122Z,70.70
2019-02-11T16:05:15.806Z,68.15
2019-02-11T16:07:38.975Z,69.41
2019-02-11T16:10:07.633Z,68.53
2019-02-11T16:12:34.651Z,68.69
2019-02-11T16:15:01.683Z,68.13
2019-02-11T16:17:28.755Z,66.98
2019-02-11T16:19:55.851Z,67.88
2019-02-11T16:22:22.895Z,67.05
2019-02-11T16:24:49.927Z,67.21
2019-02-11T16:27:16.879Z,66.20
2019-02-11T16:29:46.368Z,67.62
2019-02-11T16:32:13.376Z,66.18
2019-02-11T16:34:42.510Z,66.95
2019-02-11T16:37:09.493Z,65.74
2019-02-11T16:39:36.429Z,66.28
2019-02-11T16:42:03.553Z,66.13
2019-02-11T16:44:30.907Z,66.88
2019-02-11T16:46:57.893Z,66.92
2019-02-11T16:49:24.813Z,66.71
2019-02-11T16:51:51.760Z,67.07
2019-02-11T16:54:18.673Z,68.11
2019-02-11T16:56:45.616Z,67.88
2019-02-11T16:59:12.523Z,69.07
2019-02-11T17:01:39.756Z,69.27
2019-02-11T17:04:06.847Z,70.41
2019-02-11T17:06:35.265Z,70.07
2019-02-11T17:09:02.735Z,71.29
2019-02-11T17:11:29.742Z,71.98
2019-02-11T17:13:59.196Z,71.39
2019-02-11T17:16:26.321Z,72.03
2019-02-11T17:18:53.309Z,71.58
2019-02-11T17:21:20.257Z,72.30
2019-02-11T17:23:47.381Z,72.44
2019-02-11T17:26:14.365Z,73.16
2019-02-11T17:28:42.482Z,72.57
2019-02-11T17:31:09.662Z,72.76
2019-02-11T17:33:36.649Z,73.10
2019-02-11T17:36:03.579Z,72.50
2019-02-11T17:38:30.756Z,74.07
2019-02-11T17:40:57.803Z,73.66
2019-02-11T17:43:24.765Z,73.90
2019-02-11T17:45:51.704Z,75.46
2019-02-11T17:48:19.638Z,75.27
2019-02-11T17:50:46.922Z,75.95
2019-02-11T17:53:16.688Z,75.63
2019-02-11T17:55:45.630Z,75.31
2019-02-11T17:58:12.727Z,76.75
2019-02-11T18:00:44.348Z,77.29
2019-02-11T18:03:11.342Z,77.59
2019-02-11T18:05:38.281Z,77.98
2019-02-11T18:08:05.225Z,77.55
2019-02-11T18:10:32.117Z,78.10
2019-02-11T18:12:59.103Z,78.12
2019-02-11T18:15:26.011Z,78.78
2019-02-11T18:17:52.979Z,78.80
2019-02-11T18:20:19.927Z,78.80
2019-02-11T18:22:46.942Z,79.03
2019-02-11T18:25:13.926Z,77.92
2019-02-11T18:27:40.874Z,78.96
2019-02-11T18:30:09.272Z,79.19
2019-02-11T18:32:36.241Z,80.36
2019-02-11T18:35:04.909Z,80.15
2019-02-11T18:37:31.831Z,80.92
2019-02-11T18:39:58.788Z,81.67
2019-02-11T18:42:25.719Z,82.18
2019-02-11T18:44:52.662Z,83.55
2019-02-11T18:47:19.607Z,83.61
2019-02-11T18:49:46.596Z,84.74
2019-02-11T18:52:13.528Z,84.70
2019-02-11T18:54:40.508Z,83.78
2019-02-11T18:57:07.419Z,84.91
2019-02-11T18:59:34.389Z,84.61
2019-02-11T19:02:01.324Z,85.25
2019-02-11T19:04:28.305Z,85.87
2019-02-11T19:06:55.209Z,86.04
2019-02-11T19:09:22.295Z,86.47
2019-02-11T19:11:49.250Z,87.60
2019-02-11T19:14:16.300Z,88.82
2019-02-11T19:16:43.301Z,88.81
2019-02-11T19:19:10.272Z,89.56
2019-02-11T19:21:37.171Z,89.67
2019-02-11T19:24:04.142Z,90.32
2019-02-11T19:26:31.122Z,91.17
2019-02-11T19:28:58.101Z,89.69
2019-02-11T19:31:25.020Z,90.28
2019-02-11T19:33:51.977Z,90.19
2019-02-11T19:36:18.912Z,89.94
2019-02-11T19:38:45.874Z,89.32
2019-02-11T19:41:12.787Z,88.86
2019-02-11T19:43:39.701Z,89.23
2019-02-11T19:46:06.684Z,89.19
2019-02-11T19:48:33.624Z,89.27
2019-02-11T19:51:00.576Z,89.12
2019-02-11T19:53:27.495Z,89.87
2019-02-11T19:55:54.460Z,89.74
2019-02-11T19:58:21.448Z,89.87
2019-02-11T20:00:48.520Z,89.92
2019-02-11T20:03:15.482Z,89.98
2019-02-11T20:05:42.423Z,88.90
2019-02-11T20:08:09.335Z,89.31
2019-02-11T20:10:36.300Z,88.94
2019-02-11T20:13:03.236Z,89.76
2019-02-11T20:15:30.232Z,88.52
2019-02-11T20:17:57.129Z,88.87
2019-02-11T20:20:24.177Z,89.35
2019-02-11T20:22:51.089Z,89.04
2019-02-11T20:25:18.063Z,88.80
2019-02-11T20:27:45.070Z,88.46
2019-02-11T20:30:13.818Z,88.59
2019-02-11T20:32:40.731Z,88.53
2019-02-11T20:35:07.794Z,88.89
2019-02-11T20:37:34.714Z,88.46
2019-02-11T20:40:03.337Z,87.99
2019-02-11T20:42:30.783Z,88.70
2019-02-11T20:44:58.981Z,88.35
2019-02-11T20:47:25.887Z,88.51
2019-02-11T20:49:52.541Z,88.25
2019-02-11T20:52:19.174Z,88.66
2019-02-11T20:54:45.725Z,88.03
2019-02-11T20:57:12.395Z,88.61
2019-02-11T20:59:38.893Z,88.79
2019-02-11T21:02:05.600Z,88.26
2019-02-11T21:04:32.238Z,88.57
2019-02-11T21:06:58.901Z,88.39
2019-02-11T21:09:25.569Z,88.10
2019-02-11T21:11:52.312Z,86.65
2019-02-11T21:14:18.853Z,86.24
2019-02-11T21:16:45.493Z,86.43
2019-02-11T21:19:12.171Z,84.61
2019-02-11T21:21:39.231Z,83.19
2019-02-11T21:24:05.851Z,82.54
2019-02-11T21:26:32.710Z,80.90
2019-02-11T21:28:59.311Z,77.74
2019-02-11T21:31:25.988Z,78.77
2019-02-11T21:33:52.557Z,79.78
2019-02-11T21:36:19.245Z,78.84
2019-02-11T21:38:45.901Z,78.49
2019-02-11T21:41:12.558Z,79.15
2019-02-11T21:43:39.176Z,79.21
2019-02-11T21:46:05.796Z,80.96
2019-02-11T21:48:32.488Z,81.02
2019-02-11T21:50:59.110Z,80.19
2019-02-11T21:53:25.814Z,81.15
2019-02-11T21:55:52.498Z,80.84
2019-02-11T21:58:19.403Z,80.84
2019-02-11T22:03:24.017Z,82.35
2019-02-11T22:05:50.777Z,82.24
2019-02-11T22:08:17.342Z,81.75
2019-02-11T22:10:43.931Z,81.87
2019-02-11T22:13:10.524Z,82.27
2019-02-11T22:15:37.156Z,82.01
2019-02-11T22:18:03.801Z,81.99
2019-02-11T22:20:34.756Z,81.07
2019-02-11T22:22:58.926Z,80.85
2019-02-11T22:25:26.084Z,81.05
2019-02-11T22:27:52.641Z,81.35
2019-02-11T22:30:19.659Z,80.74
2019-02-11T22:32:46.250Z,80.86
2019-02-11T22:35:13.241Z,81.14
2019-02-11T22:37:40.363Z,81.25
2019-02-11T22:40:07.729Z,81.04
2019-02-11T22:42:34.698Z,81.96
2019-02-11T22:45:01.709Z,82.72
2019-02-11T22:47:28.645Z,79.79
2019-02-11T22:49:55.199Z,79.95
2019-02-11T22:52:22.207Z,80.27
2019-02-11T22:54:49.122Z,80.31
2019-02-11T22:57:16.043Z,78.63
2019-02-11T22:59:42.983Z,78.28
2019-02-11T23:02:09.929Z,78.27
2019-02-11T23:04:36.966Z,79.03
2019-02-11T23:07:03.982Z,80.23
2019-02-11T23:09:30.942Z,79.86
2019-02-11T23:11:57.872Z,79.97
2019-02-11T23:14:24.815Z,79.93
2019-02-11T23:16:51.717Z,80.83
2019-02-11T23:19:18.658Z,80.32
2019-02-11T23:21:45.553Z,80.68
2019-02-11T23:24:12.485Z,79.78
2019-02-11T23:26:39.676Z,80.82
2019-02-11T23:29:07.094Z,80.83
2019-02-11T23:31:34.121Z,80.74
2019-02-11T23:34:03.481Z,81.05
2019-02-11T23:36:29.977Z,81.68
2019-02-11T23:38:56.483Z,81.74
2019-02-11T23:41:22.970Z,81.83
2019-02-11T23:43:49.582Z,82.70
2019-02-11T23:46:16.149Z,82.86
2019-02-11T23:48:42.765Z,83.23
2019-02-11T23:51:09.334Z,82.51
2019-02-11T23:53:35.945Z,82.89
2019-02-11T23:56:02.523Z,82.96
2019-02-11T23:58:28.988Z,82.70
